sensor_id;sensor_type;location;lat;lon;timestamp;temperature;humidity
10306;DHT22;5198;52.382;9.020;2022-08-25T00:02:26;23.60;77.00
10306;DHT22;5198;52.382;9.020;2022-08-25T00:06:30;23.50;75.20
10306;DHT22;5198;52.382;9.020;2022-08-25T00:10:33;23.40;74.10
10306;DHT22;5198;52.382;9.020;2022-08-25T00:14:36;23.40;74.30
10306;DHT22;5198;52.382;9.020;2022-08-25T00:18:41;23.40;74.30
10306;DHT22;5198;52.382;9.020;2022-08-25T00:22:45;23.30;74.40
10306;DHT22;5198;52.382;9.020;2022-08-25T00:26:50;23.30;76.00
10306;DHT22;5198;52.382;9.020;2022-08-25T00:30:54;23.30;77.90
10306;DHT22;5198;52.382;9.020;2022-08-25T00:34:59;23.20;76.50
10306;DHT22;5198;52.382;9.020;2022-08-25T00:39:02;23.10;77.50
10306;DHT22;5198;52.382;9.020;2022-08-25T00:43:05;23.00;78.80
10306;DHT22;5198;52.382;9.020;2022-08-25T00:47:08;23.00;77.20
10306;DHT22;5198;52.382;9.020;2022-08-25T00:51:13;22.90;78.10
10306;DHT22;5198;52.382;9.020;2022-08-25T00:55:19;22.80;78.80
10306;DHT22;5198;52.382;9.020;2022-08-25T00:59:23;22.70;79.00
10306;DHT22;5198;52.382;9.020;2022-08-25T01:03:27;22.70;78.60
10306;DHT22;5198;52.382;9.020;2022-08-25T01:07:35;22.60;78.10
10306;DHT22;5198;52.382;9.020;2022-08-25T01:11:38;22.60;78.50
10306;DHT22;5198;52.382;9.020;2022-08-25T01:15:41;22.50;79.80
10306;DHT22;5198;52.382;9.020;2022-08-25T01:19:44;22.40;79.60
10306;DHT22;5198;52.382;9.020;2022-08-25T01:23:48;22.30;79.90
10306;DHT22;5198;52.382;9.020;2022-08-25T01:27:51;22.30;78.70
10306;DHT22;5198;52.382;9.020;2022-08-25T01:31:56;22.20;79.00
10306;DHT22;5198;52.382;9.020;2022-08-25T01:35:59;22.10;80.10
10306;DHT22;5198;52.382;9.020;2022-08-25T01:40:04;22.00;81.30
10306;DHT22;5198;52.382;9.020;2022-08-25T01:44:07;21.90;80.10
10306;DHT22;5198;52.382;9.020;2022-08-25T01:48:16;21.80;80.40
10306;DHT22;5198;52.382;9.020;2022-08-25T01:52:23;21.80;80.90
10306;DHT22;5198;52.382;9.020;2022-08-25T01:56:27;21.70;81.20
10306;DHT22;5198;52.382;9.020;2022-08-25T02:00:30;21.60;81.20
10306;DHT22;5198;52.382;9.020;2022-08-25T02:04:33;21.50;81.60
10306;DHT22;5198;52.382;9.020;2022-08-25T02:08:36;21.50;78.90
10306;DHT22;5198;52.382;9.020;2022-08-25T02:12:40;21.40;77.90
10306;DHT22;5198;52.382;9.020;2022-08-25T02:16:44;21.40;77.30
10306;DHT22;5198;52.382;9.020;2022-08-25T02:20:47;21.40;77.50
10306;DHT22;5198;52.382;9.020;2022-08-25T02:24:50;21.40;77.90
10306;DHT22;5198;52.382;9.020;2022-08-25T02:28:55;21.40;77.80
10306;DHT22;5198;52.382;9.020;2022-08-25T02:32:57;21.40;77.70
10306;DHT22;5198;52.382;9.020;2022-08-25T02:37:00;21.40;77.90
10306;DHT22;5198;52.382;9.020;2022-08-25T02:41:07;21.40;77.70
10306;DHT22;5198;52.382;9.020;2022-08-25T02:45:13;21.40;78.00
10306;DHT22;5198;52.382;9.020;2022-08-25T02:49:16;21.40;77.90
10306;DHT22;5198;52.382;9.020;2022-08-25T02:53:19;21.30;80.00
10306;DHT22;5198;52.382;9.020;2022-08-25T02:57:22;21.30;81.50
10306;DHT22;5198;52.382;9.020;2022-08-25T03:01:27;21.30;80.70
10306;DHT22;5198;52.382;9.020;2022-08-25T03:05:30;21.20;80.80
10306;DHT22;5198;52.382;9.020;2022-08-25T03:09:33;21.10;80.30
10306;DHT22;5198;52.382;9.020;2022-08-25T03:13:38;21.10;79.30
10306;DHT22;5198;52.382;9.020;2022-08-25T03:17:43;21.00;79.40
10306;DHT22;5198;52.382;9.020;2022-08-25T03:21:46;21.00;78.50
10306;DHT22;5198;52.382;9.020;2022-08-25T03:25:49;21.00;78.40
10306;DHT22;5198;52.382;9.020;2022-08-25T03:30:10;21.00;80.80
10306;DHT22;5198;52.382;9.020;2022-08-25T03:34:15;20.90;79.30
10306;DHT22;5198;52.382;9.020;2022-08-25T03:38:18;21.00;78.70
10306;DHT22;5198;52.382;9.020;2022-08-25T03:42:21;20.90;79.30
10306;DHT22;5198;52.382;9.020;2022-08-25T03:46:24;20.90;79.80
10306;DHT22;5198;52.382;9.020;2022-08-25T03:50:29;20.90;81.90
10306;DHT22;5198;52.382;9.020;2022-08-25T03:54:32;20.90;82.40
10306;DHT22;5198;52.382;9.020;2022-08-25T03:58:35;20.80;83.30
10306;DHT22;5198;52.382;9.020;2022-08-25T04:02:38;20.80;83.00
10306;DHT22;5198;52.382;9.020;2022-08-25T04:06:43;20.70;83.90
10306;DHT22;5198;52.382;9.020;2022-08-25T04:10:46;20.70;83.00
10306;DHT22;5198;52.382;9.020;2022-08-25T04:14:49;20.60;83.80
10306;DHT22;5198;52.382;9.020;2022-08-25T04:18:52;20.50;83.70
10306;DHT22;5198;52.382;9.020;2022-08-25T04:22:57;20.50;84.10
10306;DHT22;5198;52.382;9.020;2022-08-25T04:27:01;20.40;84.30
10306;DHT22;5198;52.382;9.020;2022-08-25T04:31:05;20.30;82.60
10306;DHT22;5198;52.382;9.020;2022-08-25T04:35:08;20.30;81.10
10306;DHT22;5198;52.382;9.020;2022-08-25T04:39:13;20.30;80.90
10306;DHT22;5198;52.382;9.020;2022-08-25T04:43:15;20.30;83.20
10306;DHT22;5198;52.382;9.020;2022-08-25T04:47:18;20.30;82.80
10306;DHT22;5198;52.382;9.020;2022-08-25T04:51:22;20.20;84.80
10306;DHT22;5198;52.382;9.020;2022-08-25T04:55:27;20.20;85.70
10306;DHT22;5198;52.382;9.020;2022-08-25T04:59:29;20.20;85.20
10306;DHT22;5198;52.382;9.020;2022-08-25T05:03:32;20.10;83.90
10306;DHT22;5198;52.382;9.020;2022-08-25T05:07:35;20.10;83.70
10306;DHT22;5198;52.382;9.020;2022-08-25T05:11:40;20.10;83.10
10306;DHT22;5198;52.382;9.020;2022-08-25T05:15:42;20.10;82.40
10306;DHT22;5198;52.382;9.020;2022-08-25T05:19:52;20.10;84.40
10306;DHT22;5198;52.382;9.020;2022-08-25T05:23:56;20.10;83.10
10306;DHT22;5198;52.382;9.020;2022-08-25T05:28:00;20.20;84.40
10306;DHT22;5198;52.382;9.020;2022-08-25T05:32:03;20.20;84.40
10306;DHT22;5198;52.382;9.020;2022-08-25T05:36:07;20.20;84.50
10306;DHT22;5198;52.382;9.020;2022-08-25T05:40:10;20.20;85.10
10306;DHT22;5198;52.382;9.020;2022-08-25T05:44:15;20.30;83.30
10306;DHT22;5198;52.382;9.020;2022-08-25T05:48:21;20.40;83.30
10306;DHT22;5198;52.382;9.020;2022-08-25T05:52:25;20.40;82.40
10306;DHT22;5198;52.382;9.020;2022-08-25T05:56:28;20.50;84.90
10306;DHT22;5198;52.382;9.020;2022-08-25T06:00:33;20.50;82.50
10306;DHT22;5198;52.382;9.020;2022-08-25T06:04:36;20.60;84.20
10306;DHT22;5198;52.382;9.020;2022-08-25T06:08:41;20.70;83.30
10306;DHT22;5198;52.382;9.020;2022-08-25T06:12:45;20.80;85.10
10306;DHT22;5198;52.382;9.020;2022-08-25T06:16:50;20.90;86.80
10306;DHT22;5198;52.382;9.020;2022-08-25T06:20:53;21.00;85.00
10306;DHT22;5198;52.382;9.020;2022-08-25T06:24:56;21.00;85.40
10306;DHT22;5198;52.382;9.020;2022-08-25T06:28:59;21.10;84.50
10306;DHT22;5198;52.382;9.020;2022-08-25T06:33:03;21.20;84.80
10306;DHT22;5198;52.382;9.020;2022-08-25T06:37:06;21.30;85.60
10306;DHT22;5198;52.382;9.020;2022-08-25T06:41:09;21.40;88.50
10306;DHT22;5198;52.382;9.020;2022-08-25T06:45:13;21.50;87.90
10306;DHT22;5198;52.382;9.020;2022-08-25T06:49:17;21.60;86.40
10306;DHT22;5198;52.382;9.020;2022-08-25T06:53:20;21.70;87.00
10306;DHT22;5198;52.382;9.020;2022-08-25T06:57:23;21.80;87.10
10306;DHT22;5198;52.382;9.020;2022-08-25T07:01:26;21.90;87.70
10306;DHT22;5198;52.382;9.020;2022-08-25T07:05:33;22.00;85.90
10306;DHT22;5198;52.382;9.020;2022-08-25T07:09:44;22.10;85.90
10306;DHT22;5198;52.382;9.020;2022-08-25T07:13:47;22.30;87.30
10306;DHT22;5198;52.382;9.020;2022-08-25T07:17:50;22.50;87.20
10306;DHT22;5198;52.382;9.020;2022-08-25T07:21:54;22.60;87.10
10306;DHT22;5198;52.382;9.020;2022-08-25T07:26:05;22.90;87.60
10306;DHT22;5198;52.382;9.020;2022-08-25T07:30:27;23.00;87.30
10306;DHT22;5198;52.382;9.020;2022-08-25T07:34:30;23.30;88.40
10306;DHT22;5198;52.382;9.020;2022-08-25T07:38:54;23.50;88.10
10306;DHT22;5198;52.382;9.020;2022-08-25T07:42:58;23.80;87.30
10306;DHT22;5198;52.382;9.020;2022-08-25T07:47:02;24.00;87.60
10306;DHT22;5198;52.382;9.020;2022-08-25T07:51:05;24.30;86.90
10306;DHT22;5198;52.382;9.020;2022-08-25T07:55:10;24.50;86.60
10306;DHT22;5198;52.382;9.020;2022-08-25T07:59:18;24.80;87.60
10306;DHT22;5198;52.382;9.020;2022-08-25T08:03:21;25.00;86.50
10306;DHT22;5198;52.382;9.020;2022-08-25T08:07:44;25.30;87.60
10306;DHT22;5198;52.382;9.020;2022-08-25T08:11:48;25.60;87.20
10306;DHT22;5198;52.382;9.020;2022-08-25T08:15:54;25.90;88.10
10306;DHT22;5198;52.382;9.020;2022-08-25T08:19:57;26.20;87.80
10306;DHT22;5198;52.382;9.020;2022-08-25T08:24:01;26.70;87.60
10306;DHT22;5198;52.382;9.020;2022-08-25T08:28:16;27.00;87.40
10306;DHT22;5198;52.382;9.020;2022-08-25T08:32:19;27.10;88.40
10306;DHT22;5198;52.382;9.020;2022-08-25T08:36:32;27.50;88.10
10306;DHT22;5198;52.382;9.020;2022-08-25T08:40:37;27.80;88.00
10306;DHT22;5198;52.382;9.020;2022-08-25T08:44:56;27.90;88.60
10306;DHT22;5198;52.382;9.020;2022-08-25T08:49:04;28.20;89.00
10306;DHT22;5198;52.382;9.020;2022-08-25T08:53:08;28.50;88.80
10306;DHT22;5198;52.382;9.020;2022-08-25T08:57:13;28.80;88.60
10306;DHT22;5198;52.382;9.020;2022-08-25T09:01:23;29.00;88.90
10306;DHT22;5198;52.382;9.020;2022-08-25T09:05:27;29.30;88.60
10306;DHT22;5198;52.382;9.020;2022-08-25T09:09:34;29.60;88.50
10306;DHT22;5198;52.382;9.020;2022-08-25T09:13:43;29.90;88.30
10306;DHT22;5198;52.382;9.020;2022-08-25T09:17:59;30.20;87.60
10306;DHT22;5198;52.382;9.020;2022-08-25T09:22:07;30.40;87.90
10306;DHT22;5198;52.382;9.020;2022-08-25T09:26:33;30.60;87.60
10306;DHT22;5198;52.382;9.020;2022-08-25T09:30:40;30.90;87.20
10306;DHT22;5198;52.382;9.020;2022-08-25T09:34:47;31.20;87.40
10306;DHT22;5198;52.382;9.020;2022-08-25T09:38:51;31.40;87.10
10306;DHT22;5198;52.382;9.020;2022-08-25T09:42:56;31.70;87.10
10306;DHT22;5198;52.382;9.020;2022-08-25T09:47:00;31.90;87.40
10306;DHT22;5198;52.382;9.020;2022-08-25T09:51:11;32.20;87.10
10306;DHT22;5198;52.382;9.020;2022-08-25T09:55:23;32.50;86.90
10306;DHT22;5198;52.382;9.020;2022-08-25T09:59:28;32.80;86.30
10306;DHT22;5198;52.382;9.020;2022-08-25T10:03:36;33.10;85.80
10306;DHT22;5198;52.382;9.020;2022-08-25T10:07:46;33.30;85.20
10306;DHT22;5198;52.382;9.020;2022-08-25T10:11:52;33.50;84.30
10306;DHT22;5198;52.382;9.020;2022-08-25T10:16:02;33.60;84.00
10306;DHT22;5198;52.382;9.020;2022-08-25T10:20:22;33.70;83.80
10306;DHT22;5198;52.382;9.020;2022-08-25T10:24:26;33.80;84.10
10306;DHT22;5198;52.382;9.020;2022-08-25T10:28:32;33.90;83.80
10306;DHT22;5198;52.382;9.020;2022-08-25T10:32:53;34.00;83.20
10306;DHT22;5198;52.382;9.020;2022-08-25T10:37:01;34.20;82.40
10306;DHT22;5198;52.382;9.020;2022-08-25T10:41:17;34.30;81.60
10306;DHT22;5198;52.382;9.020;2022-08-25T10:45:24;34.30;80.80
10306;DHT22;5198;52.382;9.020;2022-08-25T10:49:46;34.30;81.00
10306;DHT22;5198;52.382;9.020;2022-08-25T10:53:52;34.30;81.20
10306;DHT22;5198;52.382;9.020;2022-08-25T10:57:59;34.30;81.10
10306;DHT22;5198;52.382;9.020;2022-08-25T11:02:09;34.30;81.50
10306;DHT22;5198;52.382;9.020;2022-08-25T11:06:16;34.40;82.10
10306;DHT22;5198;52.382;9.020;2022-08-25T11:10:21;34.50;81.60
10306;DHT22;5198;52.382;9.020;2022-08-25T11:14:29;34.50;80.70
10306;DHT22;5198;52.382;9.020;2022-08-25T11:18:43;34.50;81.10
10306;DHT22;5198;52.382;9.020;2022-08-25T11:22:49;34.50;81.30
10306;DHT22;5198;52.382;9.020;2022-08-25T11:26:54;34.50;81.10
10306;DHT22;5198;52.382;9.020;2022-08-25T11:30:59;34.60;81.30
10306;DHT22;5198;52.382;9.020;2022-08-25T11:35:06;34.70;81.40
10306;DHT22;5198;52.382;9.020;2022-08-25T11:39:14;34.80;81.40
10306;DHT22;5198;52.382;9.020;2022-08-25T11:43:24;34.90;81.60
10306;DHT22;5198;52.382;9.020;2022-08-25T11:47:45;35.00;80.90
10306;DHT22;5198;52.382;9.020;2022-08-25T11:51:51;35.20;81.30
10306;DHT22;5198;52.382;9.020;2022-08-25T11:55:55;35.20;80.30
10306;DHT22;5198;52.382;9.020;2022-08-25T12:00:07;35.20;78.90
10306;DHT22;5198;52.382;9.020;2022-08-25T12:04:15;35.20;80.20
10306;DHT22;5198;52.382;9.020;2022-08-25T12:08:47;35.20;80.40
10306;DHT22;5198;52.382;9.020;2022-08-25T12:12:58;35.40;79.50
10306;DHT22;5198;52.382;9.020;2022-08-25T12:17:05;35.60;80.50
10306;DHT22;5198;52.382;9.020;2022-08-25T12:21:15;35.70;79.80
10306;DHT22;5198;52.382;9.020;2022-08-25T12:29:48;35.70;79.50
10306;DHT22;5198;52.382;9.020;2022-08-25T12:33:59;35.70;79.00
10306;DHT22;5198;52.382;9.020;2022-08-25T12:38:09;35.80;79.50
10306;DHT22;5198;52.382;9.020;2022-08-25T12:42:20;35.80;79.80
10306;DHT22;5198;52.382;9.020;2022-08-25T12:46:31;35.80;79.80
10306;DHT22;5198;52.382;9.020;2022-08-25T12:50:36;35.90;77.80
10306;DHT22;5198;52.382;9.020;2022-08-25T12:54:44;35.80;77.30
10306;DHT22;5198;52.382;9.020;2022-08-25T12:58:49;35.60;76.70
10306;DHT22;5198;52.382;9.020;2022-08-25T13:03:12;35.50;77.30
10306;DHT22;5198;52.382;9.020;2022-08-25T13:07:24;35.30;77.80
10306;DHT22;5198;52.382;9.020;2022-08-25T13:11:34;35.10;77.90
10306;DHT22;5198;52.382;9.020;2022-08-25T13:15:42;35.10;78.20
10306;DHT22;5198;52.382;9.020;2022-08-25T13:20:14;35.00;78.00
10306;DHT22;5198;52.382;9.020;2022-08-25T13:24:20;35.10;78.60
10306;DHT22;5198;52.382;9.020;2022-08-25T13:28:30;35.10;78.20
10306;DHT22;5198;52.382;9.020;2022-08-25T13:32:35;35.00;78.20
10306;DHT22;5198;52.382;9.020;2022-08-25T13:36:41;34.90;77.80
10306;DHT22;5198;52.382;9.020;2022-08-25T13:41:02;34.90;78.20
10306;DHT22;5198;52.382;9.020;2022-08-25T13:45:13;34.70;78.30
10306;DHT22;5198;52.382;9.020;2022-08-25T13:49:23;34.60;78.60
10306;DHT22;5198;52.382;9.020;2022-08-25T13:53:28;34.60;78.60
10306;DHT22;5198;52.382;9.020;2022-08-25T13:57:33;34.60;79.00
10306;DHT22;5198;52.382;9.020;2022-08-25T14:01:43;34.60;78.70
10306;DHT22;5198;52.382;9.020;2022-08-25T14:05:50;34.80;79.50
10306;DHT22;5198;52.382;9.020;2022-08-25T14:10:06;34.80;78.80
10306;DHT22;5198;52.382;9.020;2022-08-25T14:14:10;35.00;78.90
10306;DHT22;5198;52.382;9.020;2022-08-25T14:18:18;35.00;78.50
10306;DHT22;5198;52.382;9.020;2022-08-25T14:22:28;35.00;78.10
10306;DHT22;5198;52.382;9.020;2022-08-25T14:26:31;35.10;78.80
10306;DHT22;5198;52.382;9.020;2022-08-25T14:30:34;35.10;78.10
10306;DHT22;5198;52.382;9.020;2022-08-25T14:34:39;35.20;78.20
10306;DHT22;5198;52.382;9.020;2022-08-25T14:38:43;35.20;78.30
10306;DHT22;5198;52.382;9.020;2022-08-25T14:42:54;35.20;77.70
10306;DHT22;5198;52.382;9.020;2022-08-25T14:46:57;35.20;77.90
10306;DHT22;5198;52.382;9.020;2022-08-25T14:51:04;35.20;77.50
10306;DHT22;5198;52.382;9.020;2022-08-25T14:55:08;35.20;77.90
10306;DHT22;5198;52.382;9.020;2022-08-25T14:59:12;35.20;77.40
10306;DHT22;5198;52.382;9.020;2022-08-25T15:03:15;35.20;77.50
10306;DHT22;5198;52.382;9.020;2022-08-25T15:07:22;35.20;77.70
10306;DHT22;5198;52.382;9.020;2022-08-25T15:11:43;35.20;77.70
10306;DHT22;5198;52.382;9.020;2022-08-25T15:15:46;35.10;77.40
10306;DHT22;5198;52.382;9.020;2022-08-25T15:19:53;35.10;77.10
10306;DHT22;5198;52.382;9.020;2022-08-25T15:23:58;35.00;77.50
10306;DHT22;5198;52.382;9.020;2022-08-25T15:28:02;35.00;77.10
10306;DHT22;5198;52.382;9.020;2022-08-25T15:32:10;35.10;77.90
10306;DHT22;5198;52.382;9.020;2022-08-25T15:36:16;35.20;77.90
10306;DHT22;5198;52.382;9.020;2022-08-25T15:40:22;35.40;78.50
10306;DHT22;5198;52.382;9.020;2022-08-25T15:44:26;35.60;78.30
10306;DHT22;5198;52.382;9.020;2022-08-25T15:48:30;35.80;77.30
10306;DHT22;5198;52.382;9.020;2022-08-25T15:52:33;35.90;77.40
10306;DHT22;5198;52.382;9.020;2022-08-25T15:56:50;36.20;77.60
10306;DHT22;5198;52.382;9.020;2022-08-25T16:00:55;36.30;77.00
10306;DHT22;5198;52.382;9.020;2022-08-25T16:04:59;36.40;76.30
10306;DHT22;5198;52.382;9.020;2022-08-25T16:09:02;36.60;77.90
10306;DHT22;5198;52.382;9.020;2022-08-25T16:13:07;36.80;76.40
10306;DHT22;5198;52.382;9.020;2022-08-25T16:17:11;36.90;76.90
10306;DHT22;5198;52.382;9.020;2022-08-25T16:21:20;37.00;77.30
10306;DHT22;5198;52.382;9.020;2022-08-25T16:25:26;37.10;76.50
10306;DHT22;5198;52.382;9.020;2022-08-25T16:29:31;37.10;77.40
10306;DHT22;5198;52.382;9.020;2022-08-25T16:33:37;37.00;75.90
10306;DHT22;5198;52.382;9.020;2022-08-25T16:37:40;36.90;75.60
10306;DHT22;5198;52.382;9.020;2022-08-25T16:41:43;36.80;74.90
10306;DHT22;5198;52.382;9.020;2022-08-25T16:45:49;36.60;75.50
10306;DHT22;5198;52.382;9.020;2022-08-25T16:49:58;36.40;75.40
10306;DHT22;5198;52.382;9.020;2022-08-25T16:54:01;36.10;75.20
10306;DHT22;5198;52.382;9.020;2022-08-25T16:58:22;35.90;75.40
10306;DHT22;5198;52.382;9.020;2022-08-25T17:02:28;35.70;75.50
10306;DHT22;5198;52.382;9.020;2022-08-25T17:06:33;35.40;75.10
10306;DHT22;5198;52.382;9.020;2022-08-25T17:10:36;35.00;74.80
10306;DHT22;5198;52.382;9.020;2022-08-25T17:14:40;34.90;75.40
10306;DHT22;5198;52.382;9.020;2022-08-25T17:18:44;34.60;75.30
10306;DHT22;5198;52.382;9.020;2022-08-25T17:22:48;34.40;75.50
10306;DHT22;5198;52.382;9.020;2022-08-25T17:26:51;34.10;75.60
10306;DHT22;5198;52.382;9.020;2022-08-25T17:30:54;33.90;75.90
10306;DHT22;5198;52.382;9.020;2022-08-25T17:34:58;33.50;76.20
10306;DHT22;5198;52.382;9.020;2022-08-25T17:39:05;33.30;76.30
10306;DHT22;5198;52.382;9.020;2022-08-25T17:43:09;33.10;76.20
10306;DHT22;5198;52.382;9.020;2022-08-25T17:47:12;32.80;76.80
10306;DHT22;5198;52.382;9.020;2022-08-25T17:51:16;32.60;76.90
10306;DHT22;5198;52.382;9.020;2022-08-25T17:55:19;32.40;77.30
10306;DHT22;5198;52.382;9.020;2022-08-25T17:59:23;32.10;77.10
10306;DHT22;5198;52.382;9.020;2022-08-25T18:03:32;32.00;77.90
10306;DHT22;5198;52.382;9.020;2022-08-25T18:07:39;31.80;78.00
10306;DHT22;5198;52.382;9.020;2022-08-25T18:11:44;31.60;78.30
10306;DHT22;5198;52.382;9.020;2022-08-25T18:15:47;31.30;77.50
10306;DHT22;5198;52.382;9.020;2022-08-25T18:19:50;31.20;78.70
10306;DHT22;5198;52.382;9.020;2022-08-25T18:23:54;31.00;78.00
10306;DHT22;5198;52.382;9.020;2022-08-25T18:27:57;30.90;77.90
10306;DHT22;5198;52.382;9.020;2022-08-25T18:32:00;30.80;78.50
10306;DHT22;5198;52.382;9.020;2022-08-25T18:36:05;30.60;78.00
10306;DHT22;5198;52.382;9.020;2022-08-25T18:40:10;30.50;78.20
10306;DHT22;5198;52.382;9.020;2022-08-25T18:44:24;30.30;78.10
10306;DHT22;5198;52.382;9.020;2022-08-25T18:48:27;30.20;78.10
10306;DHT22;5198;52.382;9.020;2022-08-25T18:52:30;30.10;80.50
10306;DHT22;5198;52.382;9.020;2022-08-25T18:56:34;30.00;79.80
10306;DHT22;5198;52.382;9.020;2022-08-25T19:00:37;29.80;80.40
10306;DHT22;5198;52.382;9.020;2022-08-25T19:04:42;29.70;80.20
10306;DHT22;5198;52.382;9.020;2022-08-25T19:08:45;29.60;80.30
10306;DHT22;5198;52.382;9.020;2022-08-25T19:12:49;29.50;81.30
10306;DHT22;5198;52.382;9.020;2022-08-25T19:16:52;29.40;80.80
10306;DHT22;5198;52.382;9.020;2022-08-25T19:20:56;29.30;80.90
10306;DHT22;5198;52.382;9.020;2022-08-25T19:24:59;29.20;80.20
10306;DHT22;5198;52.382;9.020;2022-08-25T19:29:05;29.10;81.50
10306;DHT22;5198;52.382;9.020;2022-08-25T19:33:09;29.00;80.00
10306;DHT22;5198;52.382;9.020;2022-08-25T19:37:15;28.90;80.10
10306;DHT22;5198;52.382;9.020;2022-08-25T19:41:18;28.80;81.30
10306;DHT22;5198;52.382;9.020;2022-08-25T19:45:23;28.80;80.00
10306;DHT22;5198;52.382;9.020;2022-08-25T19:49:26;28.70;80.20
10306;DHT22;5198;52.382;9.020;2022-08-25T19:53:32;28.60;80.00
10306;DHT22;5198;52.382;9.020;2022-08-25T19:57:35;28.50;80.60
10306;DHT22;5198;52.382;9.020;2022-08-25T20:01:45;28.40;80.40
10306;DHT22;5198;52.382;9.020;2022-08-25T20:05:50;28.30;81.00
10306;DHT22;5198;52.382;9.020;2022-08-25T20:09:53;28.20;80.40
10306;DHT22;5198;52.382;9.020;2022-08-25T20:13:56;28.20;80.40
10306;DHT22;5198;52.382;9.020;2022-08-25T20:18:05;28.10;80.80
10306;DHT22;5198;52.382;9.020;2022-08-25T20:22:08;28.00;80.40
10306;DHT22;5198;52.382;9.020;2022-08-25T20:26:18;27.90;80.20
10306;DHT22;5198;52.382;9.020;2022-08-25T20:30:26;27.90;80.70
10306;DHT22;5198;52.382;9.020;2022-08-25T20:34:30;27.80;81.10
10306;DHT22;5198;52.382;9.020;2022-08-25T20:38:34;27.70;81.50
10306;DHT22;5198;52.382;9.020;2022-08-25T20:42:37;27.60;80.90
10306;DHT22;5198;52.382;9.020;2022-08-25T20:46:44;27.60;80.90
10306;DHT22;5198;52.382;9.020;2022-08-25T20:50:49;27.50;81.10
10306;DHT22;5198;52.382;9.020;2022-08-25T20:54:58;27.40;81.30
10306;DHT22;5198;52.382;9.020;2022-08-25T20:59:01;27.40;82.00
10306;DHT22;5198;52.382;9.020;2022-08-25T21:03:10;27.30;81.40
10306;DHT22;5198;52.382;9.020;2022-08-25T21:07:15;27.20;81.30
10306;DHT22;5198;52.382;9.020;2022-08-25T21:11:18;27.20;81.50
10306;DHT22;5198;52.382;9.020;2022-08-25T21:15:23;27.10;81.60
10306;DHT22;5198;52.382;9.020;2022-08-25T21:19:27;27.00;81.70
10306;DHT22;5198;52.382;9.020;2022-08-25T21:23:32;27.00;81.90
10306;DHT22;5198;52.382;9.020;2022-08-25T21:27:48;26.90;81.70
10306;DHT22;5198;52.382;9.020;2022-08-25T21:31:51;26.80;82.20
10306;DHT22;5198;52.382;9.020;2022-08-25T21:35:55;26.80;82.20
10306;DHT22;5198;52.382;9.020;2022-08-25T21:39:59;26.70;82.80
10306;DHT22;5198;52.382;9.020;2022-08-25T21:44:02;26.70;82.50
10306;DHT22;5198;52.382;9.020;2022-08-25T21:48:05;26.60;83.00
10306;DHT22;5198;52.382;9.020;2022-08-25T21:52:10;26.50;83.70
10306;DHT22;5198;52.382;9.020;2022-08-25T21:56:15;26.50;83.70
10306;DHT22;5198;52.382;9.020;2022-08-25T22:00:20;26.50;83.10
10306;DHT22;5198;52.382;9.020;2022-08-25T22:04:23;26.40;83.70
10306;DHT22;5198;52.382;9.020;2022-08-25T22:08:27;26.40;84.00
10306;DHT22;5198;52.382;9.020;2022-08-25T22:12:32;26.30;83.90
10306;DHT22;5198;52.382;9.020;2022-08-25T22:16:35;26.30;84.30
10306;DHT22;5198;52.382;9.020;2022-08-25T22:20:39;26.20;84.10
10306;DHT22;5198;52.382;9.020;2022-08-25T22:24:42;26.20;84.00
10306;DHT22;5198;52.382;9.020;2022-08-25T22:28:46;26.20;84.80
10306;DHT22;5198;52.382;9.020;2022-08-25T22:32:50;26.10;84.30
10306;DHT22;5198;52.382;9.020;2022-08-25T22:36:53;26.10;84.90
10306;DHT22;5198;52.382;9.020;2022-08-25T22:41:00;26.10;84.20
10306;DHT22;5198;52.382;9.020;2022-08-25T22:45:05;26.00;84.30
10306;DHT22;5198;52.382;9.020;2022-08-25T22:49:08;26.00;84.80
10306;DHT22;5198;52.382;9.020;2022-08-25T22:53:11;25.90;84.70
10306;DHT22;5198;52.382;9.020;2022-08-25T22:57:14;25.80;85.30
10306;DHT22;5198;52.382;9.020;2022-08-25T23:01:20;25.80;85.30
10306;DHT22;5198;52.382;9.020;2022-08-25T23:05:23;25.70;85.40
10306;DHT22;5198;52.382;9.020;2022-08-25T23:09:28;25.70;86.80
10306;DHT22;5198;52.382;9.020;2022-08-25T23:13:31;25.60;84.60
10306;DHT22;5198;52.382;9.020;2022-08-25T23:17:40;25.60;84.60
10306;DHT22;5198;52.382;9.020;2022-08-25T23:21:43;25.50;84.60
10306;DHT22;5198;52.382;9.020;2022-08-25T23:26:04;25.50;85.10
10306;DHT22;5198;52.382;9.020;2022-08-25T23:30:08;25.40;85.40
10306;DHT22;5198;52.382;9.020;2022-08-25T23:34:12;25.40;87.10
10306;DHT22;5198;52.382;9.020;2022-08-25T23:38:15;25.30;85.40
10306;DHT22;5198;52.382;9.020;2022-08-25T23:42:18;25.30;85.10
10306;DHT22;5198;52.382;9.020;2022-08-25T23:46:22;25.20;85.00
10306;DHT22;5198;52.382;9.020;2022-08-25T23:50:27;25.20;85.30
10306;DHT22;5198;52.382;9.020;2022-08-25T23:54:32;25.10;85.00
10306;DHT22;5198;52.382;9.020;2022-08-25T23:58:35;25.10;85.20
